^^
Station Historical Data
Daily Summary for March 19, 2017 Units:  Metric    English   Both
« Previous Day
Next Day »
Daily Weekly Monthly Yearly Custom
  High: Low: Average:
Temperature: 35 °C 23.2 °C 26.7 °C
Dew Point: 16.3 °C 11.2 °C 13.5 °C
Humidity: 58% 24% 46%
Wind Speed: 28.8km/h 0km/h 2.6km/h
Wind Gust: 29km/h - -
Wind- - NW
Pressure: 1017.2 hPa 1014.1 hPa -
Precipitation: 0 mm    
Historical Graphs
 
 
Tabular Data for March 19, 2017
Time Temperature Dew Point Pressure Wind Wind Speed Wind Gust Humidity Rainfall Rate (Hourly) solar Conditions
00:00 26.8 °C 13.5 °C 1016.1 hPa Calm     44% 0 mm 0.0 W/m2
00:05 26.9 °C 13.3 °C 1016.1 hPa Calm     43% 0 mm 0.0 W/m2
00:10 26.9 °C 13.3 °C 1016.5 hPa Calm     43% 0 mm 0.0 W/m2
00:15 27 °C 13 °C 1016.8 hPa Calm     42% 0 mm 0.0 W/m2
00:25 27.1 °C 13.1 °C 1016.8 hPa North 3.2 km/h 19.3 km/h 42% 0 mm 0.0 W/m2
00:30 26.9 °C 13.6 °C 1016.8 hPa NNW 9.7 km/h 25.7 km/h 44% 0 mm 0.0 W/m2
00:35 26.4 °C 14.2 °C 1016.8 hPa North 28.8 km/h 29 km/h 47% 0 mm 0.0 W/m2
00:50 25.7 °C 14.8 °C 1016.8 hPa North 13 km/h 20.9 km/h 51% 0 mm 0.0 W/m2
01:05 25.5 °C 15.2 °C 1016.8 hPa North 3.2 km/h 20.9 km/h 53% 0 mm 0.0 W/m2
01:10 25.2 °C 15.8 °C 1016.8 hPa North 20.9 km/h 25.7 km/h 56% 0 mm 0.0 W/m2
01:15 24.8 °C 15.7 °C 1016.8 hPa North 13 km/h 20.9 km/h 57% 0 mm 0.0 W/m2
01:20 24.6 °C 15.8 °C 1016.8 hPa North 7.9 km/h 22.5 km/h 58% 0 mm 0.0 W/m2
01:25 24.5 °C 15.4 °C 1016.8 hPa Calm   14.5 km/h 57% 0 mm 0.0 W/m2
01:30 24.4 °C 15.1 °C 1016.8 hPa Calm     56% 0 mm 0.0 W/m2
01:36 24.4 °C 15.1 °C 1016.5 hPa Calm     56% 0 mm 0.0 W/m2
01:41 24.4 °C 15.1 °C 1016.5 hPa Calm     56% 0 mm 0.0 W/m2
01:46 24.4 °C 14.8 °C 1016.5 hPa Calm     55% 0 mm 0.0 W/m2
01:51 24.4 °C 14.5 °C 1016.1 hPa Calm     54% 0 mm 0.0 W/m2
01:56 24.4 °C 14.5 °C 1016.1 hPa Calm     54% 0 mm 0.0 W/m2
02:02 24.4 °C 14.2 °C 1016.1 hPa Calm     53% 0 mm 0.0 W/m2
02:12 24.4 °C 13.6 °C 1016.1 hPa Calm     51% 0 mm 0.0 W/m2
02:22 23.9 °C 13.4 °C 1015.8 hPa Calm     52% 0 mm 0.0 W/m2
02:27 23.8 °C 13.6 °C 1015.8 hPa Calm     53% 0 mm 0.0 W/m2
02:33 23.7 °C 13.6 °C 1015.8 hPa Calm     53% 0 mm 0.0 W/m2
02:38 23.7 °C 13.6 °C 1015.8 hPa Calm     53% 0 mm 0.0 W/m2
02:43 23.7 °C 13.6 °C 1015.5 hPa Calm     53% 0 mm 0.0 W/m2
02:48 23.7 °C 13.6 °C 1015.5 hPa Calm     53% 0 mm 0.0 W/m2
02:54 23.7 °C 13.6 °C 1015.5 hPa Calm     53% 0 mm 0.0 W/m2
02:59 23.7 °C 13.6 °C 1015.1 hPa Calm     53% 0 mm 0.0 W/m2
03:04 23.8 °C 13.4 °C 1015.1 hPa Calm     52% 0 mm 0.0 W/m2
03:09 23.8 °C 13.1 °C 1015.1 hPa Calm     51% 0 mm 0.0 W/m2
03:14 23.9 °C 13.1 °C 1015.1 hPa Calm     51% 0 mm 0.0 W/m2
03:20 23.9 °C 13.1 °C 1015.1 hPa Calm     51% 0 mm 0.0 W/m2
03:25 23.8 °C 13.1 °C 1014.8 hPa Calm     51% 0 mm 0.0 W/m2
03:30 23.8 °C 13.1 °C 1014.8 hPa Calm     51% 0 mm 0.0 W/m2
03:35 23.7 °C 13 °C 1014.8 hPa Calm     51% 0 mm 0.0 W/m2
03:40 23.7 °C 13 °C 1014.8 hPa Calm     51% 0 mm 0.0 W/m2
03:46 23.7 °C 13.3 °C 1015.1 hPa Calm     52% 0 mm 0.0 W/m2
03:57 23.9 °C 13.1 °C 1015.1 hPa Calm     51% 0 mm 0.0 W/m2
04:07 24.2 °C 13.1 °C 1015.1 hPa Calm     50% 0 mm 0.0 W/m2
04:12 24.3 °C 13.2 °C 1015.1 hPa Calm     50% 0 mm 0.0 W/m2
04:22 24.3 °C 13.2 °C 1015.1 hPa Calm     50% 0 mm 0.0 W/m2
04:28 24.3 °C 13.2 °C 1015.1 hPa Calm     50% 0 mm 0.0 W/m2
04:33 24.3 °C 13.2 °C 1015.1 hPa Calm     50% 0 mm 0.0 W/m2
04:38 24.3 °C 13.2 °C 1015.1 hPa Calm     50% 0 mm 0.0 W/m2
04:43 24.2 °C 13.1 °C 1015.1 hPa Calm     50% 0 mm 0.0 W/m2
04:48 24.1 °C 13 °C 1015.1 hPa Calm     50% 0 mm 0.0 W/m2
04:53 24.1 °C 13 °C 1015.1 hPa Calm     50% 0 mm 0.0 W/m2
05:04 23.8 °C 13.1 °C 1015.1 hPa Calm     51% 0 mm 0.0 W/m2
05:09 23.7 °C 13 °C 1015.1 hPa Calm     51% 0 mm 0.0 W/m2
05:14 23.6 °C 12.9 °C 1015.1 hPa Calm     51% 0 mm 0.0 W/m2
05:24 23.6 °C 13.2 °C 1015.5 hPa Calm     52% 0 mm 0.0 W/m2
05:29 23.5 °C 13.1 °C 1015.5 hPa Calm     52% 0 mm 0.0 W/m2
05:34 23.4 °C 13 °C 1015.5 hPa Calm     52% 0 mm 0.0 W/m2
05:39 23.3 °C 12.9 °C 1015.5 hPa Calm     52% 0 mm 0.0 W/m2
05:44 23.3 °C 12.9 °C 1015.8 hPa Calm     52% 0 mm 0.0 W/m2
05:50 23.3 °C 12.6 °C 1015.8 hPa Calm     51% 0 mm 0.0 W/m2
05:55 23.4 °C 12.7 °C 1015.8 hPa Calm     51% 0 mm 0.0 W/m2
06:00 23.4 °C 12.7 °C 1015.8 hPa Calm     51% 0 mm 0.0 W/m2
06:06 23.4 °C 12.7 °C 1015.8 hPa Calm     51% 0 mm 0.0 W/m2
06:11 23.4 °C 12.7 °C 1015.8 hPa Calm     51% 0 mm 0.0 W/m2
06:16 23.4 °C 12.7 °C 1015.8 hPa Calm     51% 0 mm 0.0 W/m2
06:27 23.6 °C 12.6 °C 1015.8 hPa Calm     50% 0 mm 0.0 W/m2
06:58 23.5 °C 13.4 °C 1016.5 hPa Calm     53% 0 mm 9.0 W/m2
07:01 23.3 °C 13.5 °C 1016.5 hPa Calm     54% 0 mm 14.0 W/m2
07:17 23.2 °C 13.7 °C 1016.8 hPa Calm     55% 0 mm 32.0 W/m2
07:21 23.3 °C 13.8 °C 1016.8 hPa Calm     55% 0 mm 51.0 W/m2
07:32 23.4 °C 13.6 °C 1016.8 hPa Calm     54% 0 mm 65.0 W/m2
07:53 23.4 °C 13.6 °C 1016.8 hPa Calm     54% 0 mm 67.0 W/m2
08:03 23.4 °C 13.8 °C 1016.8 hPa Calm     55% 0 mm 77.0 W/m2
08:12 23.7 °C 14.4 °C 1017.2 hPa Calm     56% 0 mm 84.0 W/m2
08:19 23.9 °C 15.1 °C 1017.2 hPa Calm     58% 0 mm 104.0 W/m2
09:57 28.4 °C 14.6 °C 1017.2 hPa Calm     43% 0 mm 566.0 W/m2
10:03 28.6 °C 14.4 °C 1017.2 hPa Calm     42% 0 mm 582.0 W/m2
10:08 28.8 °C 14.6 °C 1017.2 hPa Calm     42% 0 mm 596.0 W/m2
10:17 29.2 °C 13.8 °C 1017.2 hPa Calm     39% 0 mm 621.0 W/m2
10:26 29.9 °C 13.6 °C 1017.2 hPa Calm     37% 0 mm 647.0 W/m2
10:34 30.2 °C 13.5 °C 1017.2 hPa Calm     36% 0 mm 663.0 W/m2
10:44 30.6 °C 13.8 °C 1016.8 hPa Calm     36% 0 mm 714.0 W/m2
10:51 30.7 °C 13.9 °C 1016.8 hPa Calm     36% 0 mm 710.0 W/m2
10:58 31.4 °C 12.7 °C 1016.8 hPa Calm     32% 0 mm 719.0 W/m2
12:10 33.3 °C 11.8 °C 1016.1 hPa Calm     27% 0 mm 877.0 W/m2
12:15 33.6 °C 12 °C 1016.1 hPa Calm     27% 0 mm 884.0 W/m2
12:21 33.8 °C 11.6 °C 1016.1 hPa Calm     26% 0 mm 508.0 W/m2
12:31 33.8 °C 11.6 °C 1015.8 hPa Calm   6.4 km/h 26% 0 mm 751.0 W/m2
12:41 34.1 °C 11.9 °C 1015.8 hPa North 3.2 km/h 11.3 km/h 26% 0 mm 374.0 W/m2
12:47 34 °C 12.4 °C 1015.8 hPa North 1.4 km/h 1.6 km/h 27% 0 mm 475.0 W/m2
12:52 34.2 °C 12 °C 1015.8 hPa North 7.9 km/h 11.3 km/h 26% 0 mm 796.0 W/m2
12:57 34.2 °C 12 °C 1015.5 hPa Calm     26% 0 mm 582.0 W/m2
12:59 34.3 °C 12 °C 1015.5 hPa North 9.7 km/h 12.9 km/h 26% 0 mm 406.0 W/m2
13:08 34.4 °C 11.5 °C 1015.5 hPa North 6.4 km/h 6.4 km/h 25% 0 mm 392.0 W/m2
13:34 35 °C 11.4 °C 1014.4 hPa North 1.4 km/h 1.6 km/h 24% 0 mm 323.0 W/m2
13:45 34.8 °C 11.2 °C 1014.4 hPa Calm     24% 0 mm 274.0 W/m2
14:06 31.9 °C 15 °C 1014.8 hPa NE 11.1 km/h 17.7 km/h 36% 0 mm 199.0 W/m2
14:15 31.7 °C 12.5 °C 1014.1 hPa WNW 11.1 km/h 11.3 km/h 31% 0 mm 183.0 W/m2
14:31 32.1 °C 11.8 °C 1014.1 hPa Calm     29% 0 mm 155.0 W/m2
14:51 32.6 °C 11.7 °C 1014.1 hPa Calm     28% 0 mm 123.0 W/m2
14:56 31.6 °C 12.9 °C 1014.1 hPa NW 19.5 km/h 22.5 km/h 32% 0 mm 109.0 W/m2
15:06 30.8 °C 14 °C 1014.1 hPa WNW 17.7 km/h 20.9 km/h 36% 0 mm 95.0 W/m2
15:16 30.2 °C 14.3 °C 1014.1 hPa WNW 11.1 km/h 20.9 km/h 38% 0 mm 81.0 W/m2
15:31 29.3 °C 13.9 °C 1014.4 hPa WNW 7.9 km/h 12.9 km/h 39% 0 mm 65.0 W/m2
15:52 30.1 °C 14.2 °C 1014.4 hPa NNW 11.1 km/h 22.5 km/h 38% 0 mm 35.0 W/m2
16:01 29.7 °C 13.5 °C 1014.4 hPa NW 20.9 km/h 25.7 km/h 37% 0 mm 23.0 W/m2
16:12 29.4 °C 14 °C 1014.4 hPa NW 16.3 km/h 24.1 km/h 39% 0 mm 21.0 W/m2
16:21 28.7 °C 14.5 °C 1014.4 hPa NW 16.3 km/h 17.7 km/h 42% 0 mm 21.0 W/m2
16:33 28.4 °C 14.2 °C 1014.4 hPa NW 4.7 km/h 9.7 km/h 42% 0 mm 25.0 W/m2
16:46 28.3 °C 13.4 °C 1014.4 hPa NW 7.9 km/h 11.3 km/h 40% 0 mm 39.0 W/m2
16:56 28.6 °C 14.1 °C 1014.4 hPa NW 7.9 km/h 11.3 km/h 41% 0 mm 86.0 W/m2
17:04 28.6 °C 15.5 °C 1014.4 hPa Calm     45% 0 mm 148.0 W/m2
17:10 28.6 °C 15.2 °C 1014.8 hPa Calm     44% 0 mm 137.0 W/m2
17:15 28.7 °C 16.3 °C 1014.8 hPa Calm     47% 0 mm 123.0 W/m2
Canyon Roadhouse, Fishriver Canyon, Namibia
Compliments of Weather Underground - 2.25 mb